Time;durP1;ratioP1;P1;durP2;ratioP2;P2;SDS_P1;SDS_P2;PMS_P1;PMS_P2;Temp;Humidity;BMP_temperature;BMP_pressure;BME280_temperature;BME280_humidity;BME280_pressure;Samples;Min_cycle;Max_cycle;Signal;HPM_P1;HPM_P2
2021/03/25 00:01:46;;;;;;;18.20;12.43;;;10.00;65.60;;;;;;5095919;28;20471;-71
2021/03/25 00:04:13;;;;;;;18.23;10.40;;;9.90;66.80;;;;;;5095953;28;20539;-71
2021/03/25 00:06:41;;;;;;;16.97;11.27;;;9.90;66.90;;;;;;5095663;28;20459;-71
2021/03/25 00:09:09;;;;;;;19.43;11.23;;;9.80;66.90;;;;;;5095337;28;20509;-71
2021/03/25 00:11:36;;;;;;;21.27;10.83;;;9.80;67.20;;;;;;5095695;28;20439;-71
2021/03/25 00:14:02;;;;;;;23.10;12.17;;;9.80;67.20;;;;;;5095746;28;20516;-71
2021/03/25 00:16:29;;;;;;;17.60;10.50;;;9.80;67.40;;;;;;5095662;28;20440;-71
2021/03/25 00:18:55;;;;;;;19.87;11.70;;;9.80;67.70;;;;;;5095311;28;20440;-71
2021/03/25 00:21:21;;;;;;;22.97;11.27;;;9.70;67.40;;;;;;5095492;28;20501;-71
2021/03/25 00:23:48;;;;;;;15.20;9.50;;;9.70;67.80;;;;;;5095552;28;20864;-71
2021/03/25 00:26:15;;;;;;;21.83;11.50;;;9.70;67.70;;;;;;5095178;28;20792;-71
2021/03/25 00:28:41;;;;;;;23.83;11.50;;;9.70;67.70;;;;;;5095493;28;20441;-71
2021/03/25 00:31:07;;;;;;;22.10;10.70;;;9.70;68.00;;;;;;5096104;28;20482;-71
2021/03/25 00:33:33;;;;;;;22.13;11.40;;;9.60;67.80;;;;;;5095338;28;20466;-71
2021/03/25 00:36:00;;;;;;;25.30;11.70;;;9.60;67.80;;;;;;5095809;28;20448;-71
2021/03/25 00:38:26;;;;;;;27.33;11.20;;;9.60;67.80;;;;;;5096069;28;20447;-71
2021/03/25 00:40:52;;;;;;;22.57;10.97;;;9.60;68.00;;;;;;5095159;28;20456;-71
2021/03/25 00:43:23;;;;;;;17.30;9.87;;;9.60;68.40;;;;;;5094692;28;21007;-71
2021/03/25 00:45:51;;;;;;;21.23;10.70;;;9.50;68.20;;;;;;5094890;28;20831;-71
2021/03/25 00:48:19;;;;;;;20.90;11.00;;;9.50;68.30;;;;;;5095076;28;20446;-71
2021/03/25 00:50:48;;;;;;;22.07;10.87;;;9.40;68.50;;;;;;5094957;28;20483;-71
2021/03/25 00:53:17;;;;;;;18.40;10.97;;;9.40;68.60;;;;;;5094919;28;20521;-71
2021/03/25 00:55:43;;;;;;;24.97;12.40;;;9.30;68.40;;;;;;5094606;28;20946;-71
2021/03/25 00:58:10;;;;;;;31.20;12.70;;;9.40;69.20;;;;;;5094838;28;20451;-72
2021/03/25 01:00:40;;;;;;;20.37;12.30;;;9.40;69.10;;;;;;5094817;28;20440;-71
2021/03/25 01:03:08;;;;;;;22.47;11.80;;;9.30;68.70;;;;;;5095201;28;20471;-71
2021/03/25 01:05:35;;;;;;;21.97;12.47;;;9.30;68.70;;;;;;5094416;28;20443;-71
2021/03/25 01:08:01;;;;;;;22.23;13.00;;;9.30;68.80;;;;;;5094281;28;20543;-71
2021/03/25 01:10:31;;;;;;;21.87;12.63;;;9.30;69.00;;;;;;5094241;28;20843;-71
2021/03/25 01:12:59;;;;;;;21.30;10.47;;;9.20;68.80;;;;;;5095632;28;20459;-71
2021/03/25 01:15:26;;;;;;;21.53;11.50;;;9.20;68.80;;;;;;5094290;28;20450;-71
2021/03/25 01:17:55;;;;;;;23.00;11.80;;;9.20;68.90;;;;;;5094623;28;20438;-71
2021/03/25 01:20:27;;;;;;;15.13;10.27;;;9.20;69.90;;;;;;5094440;28;20497;-71
2021/03/25 01:22:54;;;;;;;16.43;11.63;;;9.20;69.30;;;;;;5094387;28;20828;-71
2021/03/25 01:25:22;;;;;;;20.90;12.80;;;9.20;69.40;;;;;;5094395;28;20448;-71
2021/03/25 01:27:49;;;;;;;22.63;13.07;;;9.10;69.30;;;;;;5094309;28;20450;-71
2021/03/25 01:30:17;;;;;;;24.10;12.10;;;9.10;69.50;;;;;;5094208;28;20531;-71
2021/03/25 01:32:43;;;;;;;19.03;13.37;;;9.10;70.00;;;;;;5094221;28;20475;-71
2021/03/25 01:35:12;;;;;;;21.60;12.43;;;9.10;70.00;;;;;;5094215;28;20444;-71
2021/03/25 01:37:40;;;;;;;22.17;11.97;;;9.00;70.00;;;;;;5094198;28;20786;-71
2021/03/25 01:40:11;;;;;;;24.03;11.53;;;9.00;70.10;;;;;;5094132;28;20444;-71
2021/03/25 01:42:37;;;;;;;23.10;12.13;;;8.90;70.00;;;;;;5094009;28;20821;-71
2021/03/25 01:45:52;;;;;;;18.77;12.40;;;8.90;70.10;;;;;;5094089;28;20428;-71
2021/03/25 01:48:21;;;;;;;18.00;10.80;;;8.90;70.40;;;;;;5093990;28;20476;-71
2021/03/25 01:50:48;;;;;;;18.67;10.50;;;8.90;70.80;;;;;;5093873;28;20482;-71
2021/03/25 01:53:38;;;;;;;15.23;10.33;;;8.80;70.60;;;;;;5093832;28;20463;-71
2021/03/25 01:56:19;;;;;;;24.07;11.13;;;8.80;71.60;;;;;;5094458;28;20432;-71
2021/03/25 01:59:15;;;;;;;22.70;10.17;;;8.70;70.90;;;;;;5093556;28;20792;-71
2021/03/25 02:01:45;;;;;;;16.43;9.83;;;8.70;71.00;;;;;;5093768;28;20447;-71
2021/03/25 02:04:20;;;;;;;22.50;11.30;;;8.60;70.90;;;;;;5093803;28;20425;-71
2021/03/25 02:06:56;;;;;;;18.73;11.50;;;8.70;71.00;;;;;;5093391;28;20459;-71
2021/03/25 02:09:33;;;;;;;20.87;11.60;;;8.70;71.40;;;;;;5093364;28;20479;-71
2021/03/25 02:12:07;;;;;;;23.73;12.30;;;8.70;72.20;;;;;;5093627;28;20516;-71
2021/03/25 02:14:39;;;;;;;24.93;11.93;;;8.70;72.00;;;;;;5093705;28;20428;-71
2021/03/25 02:17:12;;;;;;;17.43;10.53;;;8.70;72.10;;;;;;5093646;28;20428;-71
2021/03/25 02:20:00;;;;;;;18.77;11.33;;;8.70;72.30;;;;;;5093313;28;20772;-71
2021/03/25 02:22:59;;;;;;;26.87;13.60;;;8.80;72.70;;;;;;5093516;28;20828;-71
2021/03/25 02:25:30;;;;;;;23.03;12.83;;;8.70;72.60;;;;;;5093541;28;20461;-71
2021/03/25 02:28:03;;;;;;;26.40;12.57;;;8.70;72.70;;;;;;5093530;28;20431;-71
2021/03/25 02:30:37;;;;;;;21.43;13.57;;;8.70;72.50;;;;;;5093423;28;20463;-71
2021/03/25 02:33:07;;;;;;;22.27;12.50;;;8.80;72.60;;;;;;5093379;28;20463;-71
2021/03/25 02:35:38;;;;;;;22.30;12.77;;;8.70;72.50;;;;;;5093447;28;20443;-71
2021/03/25 02:38:07;;;;;;;25.07;14.70;;;8.70;73.30;;;;;;5093454;28;20428;-71
2021/03/25 02:40:37;;;;;;;26.77;14.03;;;8.60;72.80;;;;;;5093891;28;20439;-71
2021/03/25 02:43:08;;;;;;;28.50;15.40;;;8.60;73.40;;;;;;5093332;28;20460;-71
2021/03/25 02:45:40;;;;;;;30.20;19.30;;;8.60;73.70;;;;;;5093392;28;20431;-71
2021/03/25 02:48:12;;;;;;;38.43;18.53;;;8.60;74.60;;;;;;5093419;28;20420;-71
2021/03/25 02:50:43;;;;;;;34.10;18.80;;;8.60;75.00;;;;;;5093306;28;20464;-71
2021/03/25 02:53:13;;;;;;;37.43;19.20;;;8.60;75.50;;;;;;5093319;28;20501;-71
2021/03/25 02:55:39;;;;;;;32.07;18.70;;;8.60;75.60;;;;;;5093049;28;20954;-71
2021/03/25 02:58:10;;;;;;;34.97;17.53;;;8.60;75.60;;;;;;5093309;28;20435;-71
2021/03/25 03:00:40;;;;;;;42.10;18.77;;;8.60;75.80;;;;;;5093432;28;20431;-71
2021/03/25 03:03:11;;;;;;;28.30;19.13;;;8.60;76.10;;;;;;5093240;28;20468;-71
2021/03/25 03:05:39;;;;;;;41.07;20.60;;;8.60;76.20;;;;;;5093339;28;20436;-71
2021/03/25 03:08:11;;;;;;;43.63;20.33;;;8.60;76.30;;;;;;5096742;28;20458;-71
2021/03/25 03:10:44;;;;;;;42.23;17.90;;;8.60;76.40;;;;;;5097106;28;20463;-71
2021/03/25 03:13:14;;;;;;;59.93;25.47;;;8.50;75.70;;;;;;5097761;28;20484;-71
2021/03/25 03:15:47;;;;;;;53.83;24.20;;;8.30;78.00;;;;;;5096935;28;20447;-71
2021/03/25 03:18:18;;;;;;;57.63;24.50;;;8.20;79.20;;;;;;5096560;28;20913;-71
2021/03/25 03:20:52;;;;;;;50.83;26.23;;;8.10;80.50;;;;;;5096852;28;20431;-71
2021/03/25 03:23:18;;;;;;;56.13;26.30;;;8.00;81.20;;;;;;5096721;28;20463;-71
2021/03/25 03:25:45;;;;;;;48.67;26.67;;;8.00;82.30;;;;;;5096377;28;20443;-71
2021/03/25 03:28:17;;;;;;;50.70;26.87;;;8.00;82.80;;;;;;5096709;28;20457;-71
2021/03/25 03:30:48;;;;;;;46.27;26.63;;;7.90;83.00;;;;;;5096624;28;20464;-71
2021/03/25 03:33:20;;;;;;;46.43;26.93;;;7.80;83.50;;;;;;5096544;28;20871;-71
2021/03/25 03:35:52;;;;;;;37.13;23.53;;;7.70;83.80;;;;;;5096237;28;20423;-71
2021/03/25 03:38:23;;;;;;;39.20;24.70;;;7.80;84.00;;;;;;5096535;28;20432;-71
2021/03/25 03:40:52;;;;;;;39.00;25.07;;;7.90;84.30;;;;;;5096457;28;20435;-71
2021/03/25 03:43:19;;;;;;;40.97;23.37;;;8.00;84.00;;;;;;5096360;28;20463;-71
2021/03/25 03:45:50;;;;;;;35.57;23.20;;;8.10;83.50;;;;;;5096426;28;20444;-71
2021/03/25 03:48:25;;;;;;;44.60;24.77;;;8.20;83.00;;;;;;5096268;28;20439;-71
2021/03/25 03:50:54;;;;;;;38.53;25.17;;;8.30;82.40;;;;;;5096244;28;20463;-71
2021/03/25 03:53:21;;;;;;;36.60;20.90;;;8.30;82.00;;;;;;5096147;28;20544;-71
2021/03/25 03:55:47;;;;;;;38.73;23.23;;;8.40;81.80;;;;;;5096203;28;20580;-71
2021/03/25 03:58:23;;;;;;;38.37;23.23;;;8.40;81.60;;;;;;5096089;28;20471;-71
2021/03/25 04:00:57;;;;;;;33.57;21.67;;;8.50;81.50;;;;;;5095848;28;20452;-71
2021/03/25 04:03:30;;;;;;;31.77;22.00;;;8.50;81.20;;;;;;5096000;28;20474;-71
2021/03/25 04:05:59;;;;;;;34.97;24.00;;;8.50;81.10;;;;;;5095923;28;20412;-71
2021/03/25 04:08:30;;;;;;;32.93;22.93;;;8.50;81.00;;;;;;5095953;28;20438;-71
2021/03/25 04:11:03;;;;;;;38.70;24.03;;;8.50;80.80;;;;;;5095808;28;20487;-71
2021/03/25 04:13:33;;;;;;;33.03;21.60;;;8.50;80.80;;;;;;5095779;28;20468;-71
2021/03/25 04:16:00;;;;;;;34.90;22.43;;;8.50;80.70;;;;;;5095821;28;20485;-71
2021/03/25 04:18:34;;;;;;;36.30;23.67;;;8.60;80.80;;;;;;5095306;28;20455;-71
2021/03/25 04:21:04;;;;;;;32.70;24.57;;;8.60;81.00;;;;;;5095398;28;20486;-71
2021/03/25 04:23:33;;;;;;;34.53;22.47;;;8.70;81.20;;;;;;5095577;28;20827;-71
2021/03/25 04:26:06;;;;;;;39.10;23.87;;;8.80;80.90;;;;;;5095596;28;20451;-71
2021/03/25 04:28:35;;;;;;;42.17;24.53;;;8.80;80.80;;;;;;5095556;28;20430;-71
2021/03/25 04:31:04;;;;;;;37.50;26.70;;;8.70;79.90;;;;;;5095408;28;20926;-71
2021/03/25 04:33:31;;;;;;;43.77;24.37;;;8.60;79.70;;;;;;5095456;28;20473;-71
2021/03/25 04:35:59;;;;;;;39.67;25.77;;;8.50;80.30;;;;;;5095388;28;20443;-71
2021/03/25 04:38:32;;;;;;;36.07;24.67;;;8.30;82.10;;;;;;5095344;28;20442;-71
2021/03/25 04:40:58;;;;;;;45.40;27.97;;;8.10;82.20;;;;;;5095304;28;20420;-71
2021/03/25 04:43:26;;;;;;;53.70;27.83;;;8.10;83.00;;;;;;5095130;28;20475;-71
2021/03/25 04:45:57;;;;;;;39.70;26.67;;;8.20;83.60;;;;;;5095192;28;20440;-71
2021/03/25 04:48:26;;;;;;;45.03;28.70;;;8.20;83.70;;;;;;5095190;28;20424;-71
2021/03/25 04:51:01;;;;;;;44.57;26.23;;;8.10;83.90;;;;;;5095066;28;20532;-71
2021/03/25 04:53:31;;;;;;;49.83;29.53;;;8.10;84.10;;;;;;5095068;28;20459;-71
2021/03/25 04:55:57;;;;;;;52.33;28.70;;;8.10;84.80;;;;;;5094965;28;20443;-71
2021/03/25 04:58:30;;;;;;;52.33;30.20;;;8.00;85.40;;;;;;5094673;28;20926;-72
2021/03/25 05:01:03;;;;;;;43.90;27.50;;;7.90;85.90;;;;;;5094910;28;20462;-72
2021/03/25 05:03:30;;;;;;;55.97;30.40;;;8.00;86.60;;;;;;5094717;28;20467;-71
2021/03/25 05:05:57;;;;;;;48.27;28.47;;;8.00;86.60;;;;;;5094585;28;20504;-71
2021/03/25 05:08:28;;;;;;;48.77;30.03;;;8.00;86.50;;;;;;5094824;28;20439;-72
2021/03/25 05:11:00;;;;;;;61.50;30.00;;;8.10;86.20;;;;;;5094628;28;20459;-72
2021/03/25 05:13:28;;;;;;;54.03;30.77;;;8.20;86.10;;;;;;5094349;28;20463;-71
2021/03/25 05:16:12;;;;;;;50.80;32.17;;;8.10;85.90;;;;;;5094541;28;20505;-71
2021/03/25 05:18:44;;;;;;;54.13;32.03;;;8.10;86.10;;;;;;5095283;28;20455;-72
2021/03/25 05:21:17;;;;;;;57.13;36.20;;;7.90;86.80;;;;;;5094540;28;20428;-72
2021/03/25 05:23:48;;;;;;;55.50;32.80;;;7.90;87.50;;;;;;5094342;28;20467;-72
2021/03/25 05:26:21;;;;;;;66.80;34.30;;;7.90;87.60;;;;;;5094442;28;20435;-72
2021/03/25 05:28:51;;;;;;;65.73;34.70;;;7.80;88.00;;;;;;5093682;28;20416;-72
2021/03/25 05:31:19;;;;;;;56.73;36.37;;;7.70;88.50;;;;;;5094299;28;20467;-72
2021/03/25 05:33:49;;;;;;;68.63;38.43;;;7.70;89.40;;;;;;5094184;28;20464;-72
2021/03/25 05:36:16;;;;;;;62.33;39.03;;;7.60;89.90;;;;;;5093998;28;20435;-72
2021/03/25 05:38:43;;;;;;;58.97;36.50;;;7.50;90.10;;;;;;5094212;28;20455;-72
2021/03/25 05:41:14;;;;;;;65.73;40.97;;;7.50;90.40;;;;;;5094113;28;20440;-72
2021/03/25 05:44:28;;;;;;;61.67;38.60;;;7.50;90.50;;;;;;5094184;28;20463;-72
2021/03/25 05:47:10;;;;;;;60.80;39.00;;;7.60;90.60;;;;;;5036985;28;21002;-72
2021/03/25 05:49:43;;;;;;;61.90;39.67;;;7.60;90.50;;;;;;5093781;28;20991;-72
2021/03/25 05:52:30;;;;;;;64.27;39.30;;;7.70;90.50;;;;;;5094026;28;20474;-72
2021/03/25 05:55:10;;;;;;;77.37;38.97;;;7.70;90.40;;;;;;5094126;28;20420;-72
2021/03/25 05:57:45;;;;;;;58.60;37.77;;;7.80;90.40;;;;;;5094067;28;20424;-72
2021/03/25 06:00:18;;;;;;;63.57;38.67;;;7.90;90.30;;;;;;5093635;28;20900;-72
2021/03/25 06:02:50;;;;;;;57.90;38.77;;;8.00;90.00;;;;;;5093432;28;21037;-72
2021/03/25 06:05:17;;;;;;;62.43;40.67;;;8.10;89.60;;;;;;5093558;28;20795;-72
2021/03/25 06:08:18;;;;;;;67.20;40.60;;;8.10;89.30;;;;;;5093389;28;20946;-72
2021/03/25 06:11:00;;;;;;;64.80;40.53;;;8.10;89.20;;;;;;5090505;28;20491;-72
2021/03/25 06:13:40;;;;;;;64.20;40.10;;;8.10;89.20;;;;;;5093723;28;20463;-72
2021/03/25 06:16:31;;;;;;;62.57;41.77;;;8.20;89.10;;;;;;5093351;28;20903;-72
2021/03/25 06:19:18;;;;;;;65.00;41.30;;;8.20;89.20;;;;;;5093629;28;20451;-72
2021/03/25 06:21:59;;;;;;;71.57;40.60;;;8.20;89.40;;;;;;5090626;28;20509;-72
2021/03/25 06:24:50;;;;;;;73.17;43.20;;;8.30;89.50;;;;;;5093291;28;20416;-72
2021/03/25 06:27:28;;;;;;;71.17;42.53;;;8.30;89.80;;;;;;5093599;28;20439;-72
2021/03/25 06:29:59;;;;;;;77.10;43.53;;;8.30;90.20;;;;;;5093176;28;20906;-72
2021/03/25 06:32:31;;;;;;;76.80;46.00;;;8.30;90.30;;;;;;5093476;28;20472;-72
2021/03/25 06:35:01;;;;;;;75.27;45.20;;;8.30;90.40;;;;;;5093510;28;20460;-72
2021/03/25 06:37:32;;;;;;;71.07;43.63;;;8.30;90.40;;;;;;5093224;28;20908;-72
2021/03/25 06:40:05;;;;;;;74.87;44.47;;;8.30;90.50;;;;;;5093949;28;20482;-72
2021/03/25 06:42:37;;;;;;;81.57;46.60;;;8.40;90.50;;;;;;5097479;28;20474;-73
2021/03/25 06:45:10;;;;;;;69.57;44.23;;;8.50;90.30;;;;;;5097585;28;20439;-73
2021/03/25 06:47:46;;;;;;;71.00;45.57;;;8.60;90.30;;;;;;5097524;28;20474;-73
2021/03/25 06:50:17;;;;;;;63.93;41.97;;;8.70;90.20;;;;;;5097401;28;20888;-72
2021/03/25 06:52:43;;;;;;;64.93;41.93;;;8.80;90.00;;;;;;5097288;28;20470;-73
2021/03/25 06:55:15;;;;;;;62.97;43.87;;;8.80;89.50;;;;;;5097421;28;20454;-73
2021/03/25 06:57:47;;;;;;;65.43;43.20;;;9.00;89.50;;;;;;5097562;28;20428;-73
2021/03/25 07:00:18;;;;;;;72.97;44.03;;;9.00;89.40;;;;;;5097210;28;20428;-73
2021/03/25 07:02:46;;;;;;;78.27;43.37;;;9.10;89.10;;;;;;5097479;28;20520;-71
2021/03/25 07:05:21;;;;;;;68.37;41.50;;;9.20;88.60;;;;;;5097465;28;20532;-73
2021/03/25 07:07:59;;;;;;;68.87;42.53;;;9.40;88.30;;;;;;5096993;28;20454;-73
2021/03/25 07:10:26;;;;;;;68.27;42.87;;;9.50;88.20;;;;;;5096766;28;20970;-73
2021/03/25 07:13:02;;;;;;;71.80;44.80;;;9.50;87.60;;;;;;5097077;28;20470;-71
2021/03/25 07:15:29;;;;;;;71.87;45.13;;;9.60;87.40;;;;;;5096803;28;20431;-73
2021/03/25 07:17:55;;;;;;;75.83;46.33;;;9.70;88.40;;;;;;5097085;28;20443;-74
2021/03/25 07:20:25;;;;;;;68.70;45.17;;;9.70;87.60;;;;;;5097020;28;20447;-73
2021/03/25 07:23:07;;;;;;;68.20;45.47;;;9.70;87.70;;;;;;5096898;28;20470;-73
2021/03/25 07:25:36;;;;;;;72.77;48.00;;;9.70;87.30;;;;;;5097126;28;20443;-73
2021/03/25 07:28:10;;;;;;;71.70;45.90;;;9.80;87.60;;;;;;5097048;28;20541;-73
2021/03/25 07:30:44;;;;;;;77.50;46.30;;;9.90;87.90;;;;;;5096764;28;20467;-73
2021/03/25 07:33:13;;;;;;;80.43;48.87;;;10.10;86.00;;;;;;5096936;28;20470;-73
2021/03/25 07:35:44;;;;;;;78.43;45.67;;;10.20;85.70;;;;;;5097028;28;20428;-73
2021/03/25 07:38:21;;;;;;;70.23;45.67;;;10.40;85.40;;;;;;5097331;28;20902;-73
2021/03/25 07:41:01;;;;;;;70.73;43.57;;;10.50;84.30;;;;;;5097751;28;20514;-74
2021/03/25 07:43:29;;;;;;;73.93;43.37;;;10.70;83.60;;;;;;5097270;28;20493;-73
2021/03/25 07:46:07;;;;;;;65.90;45.43;;;10.80;82.60;;;;;;5097714;28;20518;-73
2021/03/25 07:48:34;;;;;;;66.07;43.03;;;11.00;82.10;;;;;;5097079;28;20511;-73
2021/03/25 07:51:10;;;;;;;63.27;43.47;;;11.10;81.50;;;;;;5097614;28;20892;-73
2021/03/25 07:53:38;;;;;;;70.87;46.50;;;11.10;80.80;;;;;;5097946;28;20470;-73
2021/03/25 07:56:10;;;;;;;71.13;46.17;;;11.20;80.60;;;;;;5097330;28;20532;-73
2021/03/25 07:58:39;;;;;;;62.87;44.33;;;11.30;80.10;;;;;;5096560;28;20430;-73
2021/03/25 08:01:08;;;;;;;63.73;46.77;;;11.30;80.00;;;;;;5096710;28;20454;-73
2021/03/25 08:03:50;;;;;;;71.97;45.87;;;11.30;80.00;;;;;;5096947;28;20468;-73
2021/03/25 08:06:20;;;;;;;67.50;45.97;;;11.40;80.40;;;;;;5096597;28;20460;-73
2021/03/25 08:08:57;;;;;;;72.77;48.13;;;11.40;81.40;;;;;;5096397;28;20637;-73
2021/03/25 08:11:25;;;;;;;60.37;44.20;;;11.40;81.90;;;;;;5096572;28;20464;-73
2021/03/25 08:13:53;;;;;;;69.43;44.10;;;11.40;82.30;;;;;;5096351;28;20472;-73
2021/03/25 08:16:21;;;;;;;67.13;45.20;;;11.40;81.50;;;;;;5095918;28;20450;-73
2021/03/25 08:19:01;;;;;;;70.83;44.13;;;11.40;82.60;;;;;;5095763;28;21006;-73
2021/03/25 08:21:49;;;;;;;65.53;39.90;;;11.50;82.90;;;;;;5095685;28;20424;-73
2021/03/25 08:24:59;;;;;;;65.90;42.73;;;11.60;81.80;;;;;;5095703;28;20424;-73
2021/03/25 08:27:42;;;;;;;57.97;42.07;;;11.80;82.60;;;;;;5095811;28;20435;-73
2021/03/25 08:30:30;;;;;;;59.50;42.00;;;11.90;81.90;;;;;;5095843;28;20431;-73
2021/03/25 08:33:06;;;;;;;55.73;41.17;;;12.00;82.30;;;;;;5095669;28;20463;-73
2021/03/25 08:35:36;;;;;;;57.90;39.30;;;12.10;81.20;;;;;;5095513;28;20440;-73
2021/03/25 08:38:14;;;;;;;60.47;39.67;;;12.00;81.30;;;;;;5095564;28;20447;-73
2021/03/25 08:40:45;;;;;;;59.23;43.00;;;12.00;80.90;;;;;;5095448;28;20441;-73
2021/03/25 08:43:21;;;;;;;59.60;44.17;;;12.00;80.60;;;;;;5095326;28;20475;-73
2021/03/25 08:45:54;;;;;;;65.47;45.77;;;12.10;80.70;;;;;;5095473;28;20455;-73
2021/03/25 08:48:25;;;;;;;74.97;46.60;;;12.10;79.40;;;;;;5095303;28;20431;-73
2021/03/25 08:51:00;;;;;;;70.90;45.53;;;12.10;78.90;;;;;;5095041;28;20512;-73
2021/03/25 08:53:39;;;;;;;63.30;44.40;;;12.30;79.10;;;;;;5095270;28;20546;-73
2021/03/25 08:56:16;;;;;;;81.63;44.97;;;12.30;79.00;;;;;;5095813;28;20424;-73
2021/03/25 08:58:44;;;;;;;62.27;42.30;;;12.40;78.70;;;;;;5095181;28;20427;-73
2021/03/25 09:01:15;;;;;;;64.33;44.77;;;12.30;78.60;;;;;;5095149;28;20759;-73
2021/03/25 09:03:46;;;;;;;61.37;43.73;;;12.50;79.60;;;;;;5094803;28;20993;-73
2021/03/25 09:06:18;;;;;;;63.13;43.13;;;12.80;78.70;;;;;;5094901;28;20462;-73
2021/03/25 09:08:46;;;;;;;60.80;45.00;;;13.00;76.60;;;;;;5094501;28;20940;-73
2021/03/25 09:11:15;;;;;;;60.20;44.87;;;13.10;76.40;;;;;;5094875;28;20586;-73
2021/03/25 09:13:45;;;;;;;61.93;44.47;;;13.20;75.90;;;;;;5094643;28;20464;-73
2021/03/25 09:16:19;;;;;;;61.43;43.10;;;13.10;75.60;;;;;;5094382;28;20799;-73
2021/03/25 09:18:47;;;;;;;64.40;46.17;;;13.00;76.20;;;;;;5094829;28;20439;-73
2021/03/25 09:21:17;;;;;;;61.77;44.23;;;12.90;76.10;;;;;;5094664;28;20444;-73
2021/03/25 09:24:02;;;;;;;62.13;43.50;;;12.80;75.90;;;;;;5094387;28;20471;-73
2021/03/25 09:26:56;;;;;;;58.93;42.40;;;12.80;77.00;;;;;;5094508;28;20468;-73
2021/03/25 09:29:31;;;;;;;65.50;41.47;;;12.80;75.90;;;;;;5094519;28;20439;-73
2021/03/25 09:32:29;;;;;;;64.37;41.90;;;12.80;76.00;;;;;;5093987;28;20483;-74
2021/03/25 09:34:56;;;;;;;62.87;42.90;;;12.80;77.10;;;;;;5094168;28;20436;-74
2021/03/25 09:37:24;;;;;;;58.50;41.73;;;12.80;76.50;;;;;;5094291;28;20448;-74
2021/03/25 09:40:26;;;;;;;54.73;39.63;;;12.80;77.30;;;;;;5094276;28;20482;-74
2021/03/25 09:43:18;;;;;;;60.70;42.17;;;13.00;76.60;;;;;;5094169;28;20459;-74
2021/03/25 09:45:49;;;;;;;60.00;42.00;;;13.20;76.00;;;;;;5094162;28;20432;-74
2021/03/25 09:48:25;;;;;;;57.53;40.03;;;13.40;75.70;;;;;;5093747;28;20448;-74
2021/03/25 09:51:12;;;;;;;61.37;42.53;;;13.60;74.80;;;;;;5093864;28;20564;-74
2021/03/25 09:53:54;;;;;;;57.07;40.80;;;13.80;74.90;;;;;;5093929;28;20471;-74
2021/03/25 09:56:36;;;;;;;47.80;37.30;;;14.00;76.10;;;;;;5093700;28;20424;-74
2021/03/25 09:59:05;;;;;;;55.40;35.60;;;14.40;71.40;;;;;;5094210;28;20455;-74
2021/03/25 10:01:52;;;;;;;47.10;33.67;;;14.40;70.20;;;;;;5094182;28;20455;-74
2021/03/25 10:04:29;;;;;;;51.70;35.07;;;14.40;68.80;;;;;;5095906;28;20531;-74
2021/03/25 10:07:43;;;;;;;47.83;34.30;;;14.30;69.80;;;;;;5095400;28;20451;-74
2021/03/25 10:10:35;;;;;;;44.80;31.43;;;14.20;71.10;;;;;;5093811;28;20432;-74
2021/03/25 10:13:40;;;;;;;49.63;34.20;;;14.10;70.40;;;;;;5094196;28;20504;-74
2021/03/25 10:16:10;;;;;;;58.37;33.73;;;14.20;72.00;;;;;;5093156;28;20898;-74
2021/03/25 10:18:58;;;;;;;44.27;31.10;;;14.10;71.10;;;;;;5092963;28;20535;-73
2021/03/25 10:21:59;;;;;;;40.97;29.37;;;14.10;71.30;;;;;;5093783;28;20762;-74
2021/03/25 10:24:28;;;;;;;43.67;31.87;;;14.20;70.80;;;;;;5094369;28;20423;-74
2021/03/25 10:27:03;;;;;;;41.13;31.03;;;14.40;71.20;;;;;;5093766;28;20432;-74
2021/03/25 10:29:32;;;;;;;44.10;32.87;;;14.40;69.30;;;;;;5093744;28;20478;-74
2021/03/25 10:32:01;;;;;;;46.93;32.80;;;14.50;69.10;;;;;;5093639;28;20491;-74
2021/03/25 10:34:30;;;;;;;54.07;33.57;;;14.50;70.00;;;;;;5093664;28;20452;-74
2021/03/25 10:37:02;;;;;;;40.77;31.03;;;14.70;71.50;;;;;;5093494;28;20439;-74
2021/03/25 10:39:31;;;;;;;36.57;28.57;;;14.90;68.70;;;;;;5093587;28;20432;-74
2021/03/25 10:42:13;;;;;;;38.40;26.43;;;15.10;68.60;;;;;;5093373;28;20455;-74
2021/03/25 10:44:39;;;;;;;38.90;27.60;;;15.40;65.50;;;;;;5093415;28;20439;-74
2021/03/25 10:47:07;;;;;;;38.47;29.17;;;15.60;64.40;;;;;;5093573;28;20810;-74
2021/03/25 10:49:41;;;;;;;32.23;24.20;;;15.80;64.40;;;;;;5093570;28;20496;-74
2021/03/25 10:52:17;;;;;;;36.27;24.57;;;15.80;62.90;;;;;;5093664;28;20487;-74
2021/03/25 10:54:44;;;;;;;32.73;25.00;;;15.60;63.30;;;;;;5093590;28;20493;-74
2021/03/25 10:57:18;;;;;;;35.93;27.17;;;15.80;63.10;;;;;;5093260;28;20486;-74
2021/03/25 10:59:52;;;;;;;34.87;27.57;;;15.80;62.30;;;;;;5093250;28;20428;-74
2021/03/25 11:02:23;;;;;;;32.53;24.40;;;16.00;62.70;;;;;;5093027;28;20989;-74
2021/03/25 11:05:05;;;;;;;34.80;25.37;;;16.40;60.90;;;;;;5093334;28;20440;-73
2021/03/25 11:07:39;;;;;;;29.63;21.57;;;16.50;59.60;;;;;;5093002;28;20953;-73
2021/03/25 11:10:17;;;;;;;24.10;20.00;;;16.70;59.00;;;;;;5093227;28;20428;-73
2021/03/25 11:12:45;;;;;;;23.20;18.17;;;16.80;58.70;;;;;;5093331;28;20458;-75
2021/03/25 11:15:20;;;;;;;22.50;18.23;;;16.80;57.20;;;;;;5093503;28;20443;-75
2021/03/25 11:17:47;;;;;;;22.83;18.20;;;17.10;57.60;;;;;;5093415;28;20455;-73
2021/03/25 11:20:17;;;;;;;26.10;19.50;;;17.40;58.30;;;;;;5093235;28;20454;-74
2021/03/25 11:22:44;;;;;;;27.53;20.57;;;17.70;55.80;;;;;;5093122;28;20904;-73
2021/03/25 11:25:14;;;;;;;26.07;20.67;;;18.20;56.00;;;;;;5092819;28;20440;-73
2021/03/25 11:27:42;;;;;;;21.30;18.20;;;18.40;53.20;;;;;;5094421;28;20424;-74
2021/03/25 11:30:28;;;;;;;30.77;19.57;;;18.50;53.40;;;;;;5097093;28;20518;-73
2021/03/25 11:32:54;;;;;;;25.40;18.17;;;18.70;52.60;;;;;;5096660;28;20992;-73
2021/03/25 11:35:30;;;;;;;21.83;17.97;;;19.40;51.20;;;;;;5096859;28;20432;-74
2021/03/25 11:37:57;;;;;;;21.10;16.13;;;19.60;49.90;;;;;;5096340;28;20501;-75
2021/03/25 11:40:44;;;;;;;18.80;14.30;;;20.10;49.60;;;;;;5096620;28;20543;-73
2021/03/25 11:43:14;;;;;;;24.60;15.73;;;19.90;48.80;;;;;;5096777;28;20517;-73
2021/03/25 11:45:44;;;;;;;20.37;15.70;;;19.90;48.40;;;;;;5097626;28;20447;-74
2021/03/25 11:48:25;;;;;;;19.10;16.17;;;20.10;48.40;;;;;;5097159;28;20432;-74
2021/03/25 11:50:53;;;;;;;19.90;16.00;;;20.90;46.80;;;;;;5096340;28;20977;-74
2021/03/25 11:53:36;;;;;;;23.03;16.90;;;21.60;44.20;;;;;;5096345;28;20499;-74
2021/03/25 11:56:04;;;;;;;19.87;17.43;;;22.00;44.60;;;;;;5096163;28;20432;-75
2021/03/25 11:58:31;;;;;;;18.60;14.83;;;21.80;43.90;;;;;;5096183;28;20436;-75
2021/03/25 12:01:22;;;;;;;20.30;15.00;;;21.70;44.00;;;;;;5096271;28;20436;-76
2021/03/25 12:03:51;;;;;;;17.43;15.47;;;22.10;42.80;;;;;;5095759;28;20977;-76
2021/03/25 12:06:20;;;;;;;20.77;17.13;;;21.80;43.00;;;;;;5095894;28;20432;-76
2021/03/25 12:08:46;;;;;;;18.00;16.10;;;21.60;43.10;;;;;;5096024;28;20443;-76
2021/03/25 12:11:13;;;;;;;20.60;16.33;;;21.10;43.90;;;;;;5095610;28;20977;-74
2021/03/25 12:13:40;;;;;;;21.37;16.57;;;20.40;44.80;;;;;;5096921;28;20554;-74
2021/03/25 12:16:12;;;;;;;20.10;15.60;;;20.40;45.90;;;;;;5095841;28;20462;-75
2021/03/25 12:18:41;;;;;;;18.03;16.10;;;20.50;45.80;;;;;;5095916;28;20481;-74
2021/03/25 12:21:10;;;;;;;16.83;15.03;;;20.70;45.40;;;;;;5095363;28;20961;-74
2021/03/25 12:23:38;;;;;;;16.47;13.27;;;21.10;44.50;;;;;;5095641;28;20489;-74
2021/03/25 12:26:07;;;;;;;15.57;13.30;;;21.80;42.80;;;;;;5095751;28;20443;-74
2021/03/25 12:28:35;;;;;;;18.73;15.67;;;21.80;40.20;;;;;;5095726;28;20477;-74
2021/03/25 12:31:02;;;;;;;18.37;16.10;;;21.70;42.50;;;;;;5095509;28;20483;-74
2021/03/25 12:33:32;;;;;;;18.03;14.80;;;22.10;42.30;;;;;;5095712;28;20829;-74
2021/03/25 12:36:00;;;;;;;15.80;14.10;;;21.60;41.30;;;;;;5095444;28;20858;-74
2021/03/25 12:38:27;;;;;;;18.07;15.13;;;21.20;42.10;;;;;;5095118;28;20466;-74
2021/03/25 12:40:54;;;;;;;17.70;15.90;;;20.50;43.90;;;;;;5095782;28;20475;-74
2021/03/25 12:43:23;;;;;;;16.00;14.40;;;20.10;44.50;;;;;;5095100;28;20472;-74
2021/03/25 12:45:52;;;;;;;21.73;15.70;;;20.00;44.80;;;;;;5095281;28;20825;-74
2021/03/25 12:48:19;;;;;;;17.00;15.20;;;19.30;45.90;;;;;;5095276;28;20428;-74
2021/03/25 12:50:46;;;;;;;18.50;15.03;;;18.60;47.60;;;;;;5094724;28;21001;-74
2021/03/25 12:53:12;;;;;;;15.73;13.40;;;18.70;49.10;;;;;;5095071;28;20464;-74
2021/03/25 12:55:40;;;;;;;15.50;13.07;;;18.90;47.40;;;;;;5095180;28;20448;-74
2021/03/25 12:58:06;;;;;;;18.53;15.20;;;18.90;48.00;;;;;;5095212;28;20488;-74
2021/03/25 13:00:34;;;;;;;20.37;14.70;;;18.90;48.40;;;;;;5094972;28;20452;-74
2021/03/25 13:03:01;;;;;;;15.70;13.67;;;18.90;48.20;;;;;;5095012;28;20491;-74